Ardmore Cherokee — V7HR9 — position and weather

sailwx.info

Track history (hours):
 
Tides and Currents Weather Stations Pressure Air Temp Water Temp Dewpoint Dewpoint Depression Visibility Wind Speed Wind Dir Waves Ship Positions

Ardmore Cherokee

Last reported at 2018-Feb-18 20:05 UTC. Time now 2018-Feb-19 06:27 UTC.
Position N 22°03' E 119°30'.

Length 159 m; draft 5.6 m.

Type: Ship. MMSI: 538005865.

Date/timePositionNaut miles runAvg speedWind from/ knotsBaromVisibWave heightAir tempDewpointWater temp
2018-Feb-18 20:05N 22°03' E 119°30'213.9
2018-Feb-18 19:57N 22°05' E 119°31'613.5
2018-Feb-18 19:30N 22°10' E 119°35'813.3
2018-Feb-18 18:52N 22°17' E 119°40'513.2
2018-Feb-18 18:30N 22°21' E 119°43'713.3
2018-Feb-18 18:00N 22°27' E 119°47'713.3
2018-Feb-18 17:30N 22°33' E 119°50'713.4
2018-Feb-18 17:00N 22°39' E 119°49'714.0
2018-Feb-18 16:30N 22°46' E 119°49'714.1
2018-Feb-18 16:00N 22°53' E 119°49'713.5
2018-Feb-18 15:29N 23°00' E 119°50'712.9
2018-Feb-18 14:55N 23°08' E 119°50'912.2
2018-Feb-18 14:13N 23°16' E 119°51'311.7
2018-Feb-18 14:00N 23°19' E 119°51'611.9
2018-Feb-18 13:30N 23°25' E 119°52'611.9
2018-Feb-18 13:00N 23°30' E 119°53'612.2
2018-Feb-18 12:31N 23°36' E 119°54'1013.1
2018-Feb-18 11:47N 23°46' E 119°56'413.7
2018-Feb-18 11:30N 23°49' E 119°57'714.3
2018-Feb-18 11:00N 23°56' E 119°59'714.4
2018-Feb-18 10:29N 24°03' E 120°03'8314.8
2018-Feb-18 04:54N 25°18' E 120°42'615.2
2018-Feb-18 04:30N 25°23' E 120°45'815.3
2018-Feb-18 04:00N 25°29' E 120°51'915.5
2018-Feb-18 03:23N 25°37' E 120°55'  
2018-Feb-10 14:49N 22°01' E 116°05'412.2
2018-Feb-10 14:29N 21°60' E 116°02'3212.8
2018-Feb-10 12:02N 21°47' E 115°30'313.0
2018-Feb-10 11:47N 21°46' E 115°27'413.2
2018-Feb-10 11:30N 21°44' E 115°23'713.1
2018-Feb-10 10:59N 21°42' E 115°17'613.1
2018-Feb-10 10:30N 21°40' E 115°10'713.6
2018-Feb-10 09:59N 21°36' E 115°04'613.4
2018-Feb-10 09:30N 21°34' E 114°57'813.3
2018-Feb-10 08:54N 21°31' E 114°49'1013.2
2018-Feb-10 08:10N 21°27' E 114°40'413.0
2018-Feb-10 07:54N 21°26' E 114°36'  
Track history (hours):
 
Tides and Currents Weather Stations Pressure Air Temp Water Temp Dewpoint Dewpoint Depression Visibility Wind Speed Wind Dir Waves Ship Positions

Ardmore Cherokee

Last reported at 2018-Feb-18 20:05 UTC. Time now 2018-Feb-19 06:27 UTC.
Position N 22°03' E 119°30'.

Length 159 m; draft 5.6 m.

Type: Ship. MMSI: 538005865.

Date/timePositionNaut miles runAvg speedWind from/ knotsBaromVisibWave heightAir tempDewpointWater temp
2018-Feb-18 20:05N 22°03' E 119°30'213.9
2018-Feb-18 19:57N 22°05' E 119°31'613.5
2018-Feb-18 19:30N 22°10' E 119°35'813.3
2018-Feb-18 18:52N 22°17' E 119°40'513.2
2018-Feb-18 18:30N 22°21' E 119°43'713.3
2018-Feb-18 18:00N 22°27' E 119°47'713.3
2018-Feb-18 17:30N 22°33' E 119°50'713.4
2018-Feb-18 17:00N 22°39' E 119°49'714.0
2018-Feb-18 16:30N 22°46' E 119°49'714.1
2018-Feb-18 16:00N 22°53' E 119°49'713.5
2018-Feb-18 15:29N 23°00' E 119°50'712.9
2018-Feb-18 14:55N 23°08' E 119°50'912.2
2018-Feb-18 14:13N 23°16' E 119°51'311.7
2018-Feb-18 14:00N 23°19' E 119°51'611.9
2018-Feb-18 13:30N 23°25' E 119°52'611.9
2018-Feb-18 13:00N 23°30' E 119°53'612.2
2018-Feb-18 12:31N 23°36' E 119°54'1013.1
2018-Feb-18 11:47N 23°46' E 119°56'413.7
2018-Feb-18 11:30N 23°49' E 119°57'714.3
2018-Feb-18 11:00N 23°56' E 119°59'714.4
2018-Feb-18 10:29N 24°03' E 120°03'8314.8
2018-Feb-18 04:54N 25°18' E 120°42'615.2
2018-Feb-18 04:30N 25°23' E 120°45'815.3
2018-Feb-18 04:00N 25°29' E 120°51'915.5
2018-Feb-18 03:23N 25°37' E 120°55'  
2018-Feb-10 14:49N 22°01' E 116°05'412.2
2018-Feb-10 14:29N 21°60' E 116°02'3212.8
2018-Feb-10 12:02N 21°47' E 115°30'313.0
2018-Feb-10 11:47N 21°46' E 115°27'413.2
2018-Feb-10 11:30N 21°44' E 115°23'713.1
2018-Feb-10 10:59N 21°42' E 115°17'613.1
2018-Feb-10 10:30N 21°40' E 115°10'713.6
2018-Feb-10 09:59N 21°36' E 115°04'613.4
2018-Feb-10 09:30N 21°34' E 114°57'813.3
2018-Feb-10 08:54N 21°31' E 114°49'1013.2
2018-Feb-10 08:10N 21°27' E 114°40'413.0
2018-Feb-10 07:54N 21°26' E 114°36'  

Dump ship's entire track history